Time;durP1;ratioP1;P1;durP2;ratioP2;P2;SDS_P1;SDS_P2;PMS_P1;PMS_P2;Temp;Humidity;BMP_temperature;BMP_pressure;BME280_temperature;BME280_humidity;BME280_pressure;Samples;Min_cycle;Max_cycle;Signal;HPM_P1;HPM_P2
2022/04/28 00:01:48;;;;;;;8.80;4.78;;;;;;;;;;5051550;28;20092;-81
2022/04/28 00:04:15;;;;;;;10.32;4.97;;;;;;;;;;5051839;28;20052;-81
2022/04/28 00:06:41;;;;;;;6.95;5.00;;;;;;;;;;5051668;28;20468;-81
2022/04/28 00:09:08;;;;;;;7.82;5.13;;;;;;;;;;5051320;28;20073;-81
2022/04/28 00:11:34;;;;;;;7.32;4.88;;;;;;;;;;5051291;28;20084;-81
2022/04/28 00:14:01;;;;;;;10.80;5.30;;;;;;;;;;5051355;28;20072;-81
2022/04/28 00:16:27;;;;;;;11.25;5.10;;;;;;;;;;5050325;28;20048;-81
2022/04/28 00:18:54;;;;;;;7.80;5.10;;;;;;;;;;5050359;28;20079;-81
2022/04/28 00:21:20;;;;;;;9.65;5.60;;;;;;;;;;5051558;28;20133;-81
2022/04/28 00:23:47;;;;;;;10.38;5.18;;;;;;;;;;5051131;28;20077;-81
2022/04/28 00:26:15;;;;;;;10.63;5.20;;;;;;;;;;5051222;28;20049;-81
2022/04/28 00:28:41;;;;;;;9.90;5.50;;;;;;;;;;5051254;28;20091;-81
2022/04/28 00:31:07;;;;;;;6.55;5.53;;;;;;;;;;5051506;28;20044;-81
2022/04/28 00:33:34;;;;;;;8.25;5.18;;;;;;;;;;5051410;28;20045;-81
2022/04/28 00:36:00;;;;;;;7.88;5.22;;;;;;;;;;5054231;28;20063;-81
2022/04/28 00:38:27;;;;;;;10.93;5.97;;;;;;;;;;5055281;28;20453;-81
2022/04/28 00:40:54;;;;;;;10.02;5.55;;;;;;;;;;5054981;28;20095;-81
2022/04/28 00:43:28;;;;;;;11.35;5.43;;;;;;;;;;5053993;28;20141;-81
2022/04/28 00:45:55;;;;;;;8.70;5.40;;;;;;;;;;5053976;28;20106;-81
2022/04/28 00:51:07;;;;;;;10.85;5.43;;;;;;;;;;5055371;28;20182;-81
2022/04/28 00:53:35;;;;;;;10.77;5.57;;;;;;;;;;5054592;28;20077;-81
2022/04/28 00:56:02;;;;;;;;;;;;;;;;;;5055438;28;20110;-81
2022/04/28 00:58:28;;;;;;;12.68;5.32;;;;;;;;;;5054581;28;20396;-81
2022/04/28 01:00:55;;;;;;;11.75;5.90;;;;;;;;;;5054936;28;20444;-81
2022/04/28 01:03:23;;;;;;;11.32;5.10;;;;;;;;;;5070094;28;20052;-81
2022/04/28 01:05:49;;;;;;;8.95;6.00;;;;;;;;;;5054606;28;20404;-81
2022/04/28 01:08:16;;;;;;;10.15;5.43;;;;;;;;;;5054803;28;20084;-81
2022/04/28 01:10:42;;;;;;;11.57;5.82;;;;;;;;;;5054470;28;20098;-81
2022/04/28 01:13:08;;;;;;;8.40;5.50;;;;;;;;;;5054376;28;20076;-81
2022/04/28 01:15:42;;;;;;;9.50;6.20;;;;;;;;;;5054647;28;20053;-81
2022/04/28 01:18:08;;;;;;;10.95;6.47;;;;;;;;;;5054241;28;20132;-81
2022/04/28 01:20:35;;;;;;;8.60;5.47;;;;;;;;;;5054457;28;20135;-81
2022/04/28 01:23:03;;;;;;;8.98;5.75;;;;;;;;;;5054466;28;20087;-81
2022/04/28 01:25:30;;;;;;;11.02;5.45;;;;;;;;;;5053148;28;20447;-81
2022/04/28 01:27:56;;;;;;;8.73;6.00;;;;;;;;;;5054336;28;20111;-80
2022/04/28 01:30:23;;;;;;;10.45;5.53;;;;;;;;;;5053028;28;20073;-81
2022/04/28 01:32:50;;;;;;;12.43;6.30;;;;;;;;;;5054309;28;20102;-81
2022/04/28 01:35:17;;;;;;;9.13;5.78;;;;;;;;;;5053706;28;20081;-80
2022/04/28 01:37:43;;;;;;;13.65;6.07;;;;;;;;;;5054022;28;20077;-81
2022/04/28 01:40:13;;;;;;;10.38;5.43;;;;;;;;;;5054130;28;20040;-81
2022/04/28 01:42:40;;;;;;;11.70;6.10;;;;;;;;;;5054116;28;20084;-81
2022/04/28 01:45:08;;;;;;;10.75;6.82;;;;;;;;;;5052369;28;20076;-81
2022/04/28 01:47:34;;;;;;;8.77;5.30;;;;;;;;;;5053018;28;20079;-81
2022/04/28 01:50:01;;;;;;;10.55;5.60;;;;;;;;;;5053809;28;20087;-81
2022/04/28 01:55:12;;;;;;;10.43;6.28;;;;;;;;;;5053631;28;20053;-80
2022/04/28 01:57:41;;;;;;;9.60;6.13;;;;;;;;;;5053877;28;20096;-81
2022/04/28 02:00:09;;;;;;;8.57;5.93;;;;;;;;;;5053464;28;20099;-80
2022/04/28 02:02:35;;;;;;;8.32;6.15;;;;;;;;;;5040394;28;20079;-81
2022/04/28 02:05:03;;;;;;;9.95;6.82;;;;;;;;;;5053716;28;20049;-81
2022/04/28 02:07:29;;;;;;;13.98;7.03;;;;;;;;;;5053659;28;20072;-80
2022/04/28 02:09:56;;;;;;;10.85;6.45;;;;;;;;;;5053360;28;20080;-80
2022/04/28 02:12:24;;;;;;;11.10;6.30;;;;;;;;;;5053196;28;20095;-80
2022/04/28 02:14:51;;;;;;;10.52;5.75;;;;;;;;;;5052303;28;20045;-80
2022/04/28 02:17:18;;;;;;;9.75;6.95;;;;;;;;;;5053592;28;20451;-80
2022/04/28 02:19:45;;;;;;;7.10;5.97;;;;;;;;;;5053454;28;20104;-80
2022/04/28 02:22:11;;;;;;;9.32;5.93;;;;;;;;;;5053398;28;20141;-81
2022/04/28 02:24:38;;;;;;;10.50;6.63;;;;;;;;;;5052854;28;20531;-80
2022/04/28 02:27:05;;;;;;;10.97;6.00;;;;;;;;;;5053357;28;20111;-80
2022/04/28 02:29:32;;;;;;;12.88;6.28;;;;;;;;;;5051651;28;20558;-80
2022/04/28 02:31:58;;;;;;;9.27;5.75;;;;;;;;;;5053124;28;20073;-80
2022/04/28 02:34:25;;;;;;;13.20;6.32;;;;;;;;;;5051570;28;20122;-80
2022/04/28 02:36:51;;;;;;;11.50;6.43;;;;;;;;;;5052680;28;20550;-80
2022/04/28 02:39:18;;;;;;;9.43;6.03;;;;;;;;;;5052738;28;20072;-80
2022/04/28 02:41:45;;;;;;;8.50;5.68;;;;;;;;;;5051728;28;20068;-80
2022/04/28 02:44:12;;;;;;;11.07;6.32;;;;;;;;;;5052730;28;20096;-81
2022/04/28 02:46:48;;;;;;;11.18;6.53;;;;;;;;;;5052762;28;20103;-80
2022/04/28 02:49:15;;;;;;;9.98;7.03;;;;;;;;;;5052880;28;20106;-80
2022/04/28 02:51:42;;;;;;;10.32;6.45;;;;;;;;;;5052451;28;20079;-80
2022/04/28 02:54:08;;;;;;;7.65;6.00;;;;;;;;;;5052608;28;20068;-80
2022/04/28 02:56:35;;;;;;;10.63;5.90;;;;;;;;;;5052810;28;20049;-80
2022/04/28 02:59:02;;;;;;;11.73;5.93;;;;;;;;;;5052272;28;20077;-80
2022/04/28 03:01:28;;;;;;;11.77;6.25;;;;;;;;;;5052419;28;20186;-81
2022/04/28 03:03:55;;;;;;;7.78;5.80;;;;;;;;;;5052213;28;20524;-81
2022/04/28 03:11:52;;;;;;;9.25;6.22;;;;;;;;;;5052425;28;20080;-80
2022/04/28 03:14:19;;;;;;;9.15;6.00;;;;;;;;;;5052039;28;20081;-80
2022/04/28 03:16:46;;;;;;;11.57;6.50;;;;;;;;;;5050849;28;20501;-81
2022/04/28 03:19:12;;;;;;;10.63;6.22;;;;;;;;;;5052059;28;20091;-81
2022/04/28 03:21:38;;;;;;;11.10;6.75;;;;;;;;;;5067528;28;20114;-81
2022/04/28 03:24:05;;;;;;;12.63;6.20;;;;;;;;;;5052236;28;20080;-81
2022/04/28 03:26:32;;;;;;;9.48;6.47;;;;;;;;;;5051819;28;20468;-81
2022/04/28 03:28:58;;;;;;;12.48;6.43;;;;;;;;;;5051867;28;20492;-81
2022/04/28 03:31:25;;;;;;;9.93;6.22;;;;;;;;;;5050860;28;20163;-80
2022/04/28 03:33:52;;;;;;;12.38;6.38;;;;;;;;;;5050447;28;20507;-80
2022/04/28 03:39:04;;;;;;;10.98;8.05;;;;;;;;;;5052113;28;20405;-80
2022/04/28 03:41:31;;;;;;;16.20;10.13;;;;;;;;;;5051660;28;20078;-80
2022/04/28 03:43:57;;;;;;;13.20;8.43;;;;;;;;;;5051660;28;20088;-81
2022/04/28 03:46:24;;;;;;;12.57;8.45;;;;;;;;;;5050615;28;20141;-81
2022/04/28 03:48:51;;;;;;;14.90;8.32;;;;;;;;;;5050309;28;20514;-81
2022/04/28 03:51:18;;;;;;;12.75;8.23;;;;;;;;;;5045553;28;20424;-81
2022/04/28 03:53:44;;;;;;;14.15;8.93;;;;;;;;;;5051083;28;20065;-80
2022/04/28 03:56:10;;;;;;;16.20;9.35;;;;;;;;;;5050230;28;20045;-81
2022/04/28 03:58:37;;;;;;;14.18;9.32;;;;;;;;;;5051801;28;20085;-81
2022/04/28 04:01:03;;;;;;;22.83;15.18;;;;;;;;;;5051557;28;20081;-81
2022/04/28 04:03:30;;;;;;;14.30;8.00;;;;;;;;;;5051644;28;20055;-81
2022/04/28 04:05:58;;;;;;;12.23;8.65;;;;;;;;;;5051410;28;20574;-81
2022/04/28 04:08:24;;;;;;;12.68;8.73;;;;;;;;;;5051312;28;20123;-81
2022/04/28 04:10:51;;;;;;;11.77;8.38;;;;;;;;;;5070114;28;20048;-81
2022/04/28 04:13:17;;;;;;;14.18;8.40;;;;;;;;;;5055501;28;20092;-81
2022/04/28 04:15:44;;;;;;;13.05;8.32;;;;;;;;;;5055516;28;20085;-81
2022/04/28 04:18:10;;;;;;;11.48;7.25;;;;;;;;;;5055400;28;20571;-81
2022/04/28 04:20:37;;;;;;;12.25;7.28;;;;;;;;;;5055652;28;20083;-81
2022/04/28 04:23:05;;;;;;;10.93;7.55;;;;;;;;;;5055654;28;20087;-81
2022/04/28 04:25:32;;;;;;;12.30;7.93;;;;;;;;;;5055284;28;20459;-81
2022/04/28 04:28:00;;;;;;;;;;;;;;;;;;5055683;28;20412;-81
2022/04/28 04:33:11;;;;;;;24.60;16.00;;;;;;;;;;5055281;28;20119;-80
2022/04/28 04:35:37;;;;;;;21.10;13.13;;;;;;;;;;5054783;28;20091;-80
2022/04/28 04:38:04;;;;;;;13.30;8.50;;;;;;;;;;5055057;28;20501;-80
2022/04/28 04:40:30;;;;;;;16.65;11.23;;;;;;;;;;5055224;28;20084;-80
2022/04/28 04:42:57;;;;;;;37.25;22.55;;;;;;;;;;5055165;28;20080;-80
2022/04/28 04:45:23;;;;;;;23.48;17.00;;;;;;;;;;5055143;28;20489;-80
2022/04/28 04:47:50;;;;;;;20.35;13.35;;;;;;;;;;5054844;28;20083;-81
2022/04/28 04:50:16;;;;;;;14.90;10.02;;;;;;;;;;5055128;28;20076;-80
2022/04/28 04:52:42;;;;;;;15.95;10.63;;;;;;;;;;5054625;28;20084;-81
2022/04/28 04:55:09;;;;;;;15.65;9.50;;;;;;;;;;5054959;28;20099;-81
2022/04/28 04:57:35;;;;;;;12.18;7.95;;;;;;;;;;5054782;28;20524;-81
2022/04/28 05:00:04;;;;;;;13.25;7.63;;;;;;;;;;5053353;28;20133;-81
2022/04/28 05:02:30;;;;;;;12.63;7.47;;;;;;;;;;5054580;28;20132;-81
2022/04/28 05:04:57;;;;;;;14.38;6.95;;;;;;;;;;5054506;28;20099;-81
2022/04/28 05:07:28;;;;;;;14.10;8.48;;;;;;;;;;5054735;28;20134;-81
2022/04/28 05:09:54;;;;;;;15.75;7.68;;;;;;;;;;5054617;28;20103;-81
2022/04/28 05:12:21;;;;;;;16.15;9.20;;;;;;;;;;5054504;28;20123;-81
2022/04/28 05:14:48;;;;;;;12.38;7.90;;;;;;;;;;5054271;28;20475;-81
2022/04/28 05:17:16;;;;;;;10.55;6.95;;;;;;;;;;5053108;28;20076;-81
2022/04/28 05:19:43;;;;;;;10.57;7.82;;;;;;;;;;5054603;28;20115;-81
2022/04/28 05:22:09;;;;;;;12.43;8.05;;;;;;;;;;5052819;28;20080;-81
2022/04/28 05:24:36;;;;;;;14.02;8.18;;;;;;;;;;5054370;28;20096;-81
2022/04/28 05:27:03;;;;;;;18.20;9.77;;;;;;;;;;5054296;28;20091;-81
2022/04/28 05:29:29;;;;;;;15.50;9.40;;;;;;;;;;5054404;28;20044;-80
2022/04/28 05:31:55;;;;;;;11.70;7.20;;;;;;;;;;5054560;28;20048;-81
2022/04/28 05:34:22;;;;;;;11.93;7.25;;;;;;;;;;5054085;28;20120;-80
2022/04/28 05:36:50;;;;;;;14.00;7.88;;;;;;;;;;5053900;28;20523;-81
2022/04/28 05:39:19;;;;;;;12.07;7.50;;;;;;;;;;5040818;28;20126;-81
2022/04/28 05:41:45;;;;;;;15.77;9.60;;;;;;;;;;5054173;28;20092;-81
2022/04/28 05:47:08;;;;;;;12.60;7.38;;;;;;;;;;5032299;28;20528;-81
2022/04/28 05:49:34;;;;;;;16.73;10.68;;;;;;;;;;5054063;28;20455;-81
2022/04/28 05:52:01;;;;;;;13.35;7.88;;;;;;;;;;5053904;28;20451;-81
2022/04/28 05:54:27;;;;;;;12.63;7.28;;;;;;;;;;5053612;28;20091;-81
2022/04/28 05:57:01;;;;;;;12.57;7.40;;;;;;;;;;5053569;28;20087;-81
2022/04/28 05:59:27;;;;;;;13.65;7.97;;;;;;;;;;5053405;28;20099;-81
2022/04/28 06:01:54;;;;;;;14.50;9.23;;;;;;;;;;5053622;28;20083;-81
2022/04/28 06:04:20;;;;;;;11.25;7.82;;;;;;;;;;5052218;28;20053;-81
2022/04/28 06:06:47;;;;;;;13.95;9.68;;;;;;;;;;5053375;28;20072;-81
2022/04/28 06:09:13;;;;;;;18.08;11.63;;;;;;;;;;5053726;28;20083;-81
2022/04/28 06:11:39;;;;;;;14.15;10.45;;;;;;;;;;5053190;28;20554;-81
2022/04/28 06:14:06;;;;;;;15.30;9.25;;;;;;;;;;5053568;28;20451;-81
2022/04/28 06:16:32;;;;;;;11.45;8.77;;;;;;;;;;5053717;28;20096;-81
2022/04/28 06:18:59;;;;;;;9.60;6.93;;;;;;;;;;5053227;28;20541;-81
2022/04/28 06:21:25;;;;;;;10.77;6.65;;;;;;;;;;5053357;28;20183;-81
2022/04/28 06:23:51;;;;;;;8.70;6.80;;;;;;;;;;5052979;28;20165;-81
2022/04/28 06:26:18;;;;;;;9.65;6.97;;;;;;;;;;5052927;28;20148;-81
2022/04/28 06:28:44;;;;;;;11.40;7.93;;;;;;;;;;5052801;28;20068;-79
2022/04/28 06:31:11;;;;;;;11.93;7.20;;;;;;;;;;5052631;28;20546;-77
2022/04/28 06:33:41;;;;;;;17.38;8.60;;;;;;;;;;5052837;28;20496;-81
2022/04/28 06:36:07;;;;;;;21.05;9.30;;;;;;;;;;5052363;28;20539;-81
2022/04/28 06:38:40;;;;;;;14.18;8.75;;;;;;;;;;5052605;28;20493;-80
2022/04/28 06:41:06;;;;;;;13.10;8.57;;;;;;;;;;5052725;28;20084;-80
2022/04/28 06:43:33;;;;;;;11.85;8.23;;;;;;;;;;5052579;28;20080;-80
2022/04/28 06:46:15;;;;;;;13.40;8.30;;;;;;;;;;5067909;28;20071;-80
2022/04/28 06:48:41;;;;;;;20.27;10.73;;;;;;;;;;5052502;28;20056;-81
2022/04/28 06:51:08;;;;;;;23.70;11.15;;;;;;;;;;5052553;28;20103;-80
2022/04/28 06:53:34;;;;;;;17.58;10.32;;;;;;;;;;5052351;28;20045;-78
2022/04/28 06:56:01;;;;;;;19.55;9.43;;;;;;;;;;5052318;28;20053;-79
2022/04/28 06:58:27;;;;;;;16.25;9.13;;;;;;;;;;5052579;28;20194;-78
2022/04/28 07:00:54;;;;;;;15.18;8.50;;;;;;;;;;5051337;28;20056;-77
2022/04/28 07:03:20;;;;;;;18.15;8.00;;;;;;;;;;5052548;28;20098;-75
2022/04/28 07:05:47;;;;;;;10.10;7.78;;;;;;;;;;5052149;28;20052;-76
2022/04/28 07:08:13;;;;;;;10.02;7.95;;;;;;;;;;5051882;28;20076;-77
2022/04/28 07:10:40;;;;;;;13.07;8.93;;;;;;;;;;5051760;28;20501;-76
2022/04/28 07:13:07;;;;;;;11.68;8.35;;;;;;;;;;5052140;28;20079;-75
2022/04/28 07:15:35;;;;;;;14.32;8.65;;;;;;;;;;5052392;28;20052;-76
2022/04/28 07:18:04;;;;;;;11.02;7.32;;;;;;;;;;5052156;28;20049;-80
2022/04/28 07:20:31;;;;;;;10.82;6.60;;;;;;;;;;5052048;28;20568;-79
2022/04/28 07:22:59;;;;;;;9.73;6.85;;;;;;;;;;5052357;28;20045;-76
2022/04/28 07:25:25;;;;;;;;;;;;;;;;;;5051848;28;20049;-74
2022/04/28 07:27:52;;;;;;;11.55;6.00;;;;;;;;;;5051259;28;19967;-74
2022/04/28 07:30:20;;;;;;;7.78;5.38;;;;;;;;;;5051405;28;20507;-75
2022/04/28 07:32:47;;;;;;;9.13;5.38;;;;;;;;;;5044367;28;20550;-74
2022/04/28 07:35:14;;;;;;;8.88;5.28;;;;;;;;;;5051139;28;20080;-75
2022/04/28 07:37:41;;;;;;;7.93;4.45;;;;;;;;;;5051011;28;20080;-75
2022/04/28 07:40:08;;;;;;;5.75;4.47;;;;;;;;;;5050815;28;20081;-74
2022/04/28 07:42:34;;;;;;;8.43;4.60;;;;;;;;;;5051594;28;20110;-73
2022/04/28 07:45:01;;;;;;;10.77;4.55;;;;;;;;;;5050396;28;20083;-74
2022/04/28 07:47:27;;;;;;;5.35;4.07;;;;;;;;;;5051028;28;20138;-75
2022/04/28 07:49:54;;;;;;;11.27;4.78;;;;;;;;;;5051430;28;20077;-74
2022/04/28 07:52:20;;;;;;;9.90;4.95;;;;;;;;;;5051078;28;20496;-74
2022/04/28 07:54:47;;;;;;;10.32;4.50;;;;;;;;;;5049935;28;20454;-76
2022/04/28 07:57:14;;;;;;;7.75;4.10;;;;;;;;;;5051306;28;20080;-75
2022/04/28 07:59:40;;;;;;;9.25;4.40;;;;;;;;;;5051384;28;20083;-72
2022/04/28 08:02:11;;;;;;;8.82;4.90;;;;;;;;;;5051661;28;20045;-77
2022/04/28 08:04:38;;;;;;;9.35;3.97;;;;;;;;;;5051408;28;20063;-76
2022/04/28 08:07:05;;;;;;;6.73;4.53;;;;;;;;;;5051388;28;20044;-76
2022/04/28 08:09:32;;;;;;;8.80;4.28;;;;;;;;;;5051373;28;20076;-77
2022/04/28 08:12:04;;;;;;;8.90;4.45;;;;;;;;;;5051659;28;20068;-76
2022/04/28 08:14:30;;;;;;;5.85;4.57;;;;;;;;;;5050778;28;20412;-76
2022/04/28 08:16:57;;;;;;;5.82;3.90;;;;;;;;;;5051028;28;20076;-78
2022/04/28 08:19:23;;;;;;;7.72;4.55;;;;;;;;;;5050669;28;20057;-76
2022/04/28 08:21:50;;;;;;;7.30;4.10;;;;;;;;;;5051139;28;20073;-78
2022/04/28 08:24:16;;;;;;;7.90;4.15;;;;;;;;;;5051162;28;20056;-77
2022/04/28 08:26:43;;;;;;;9.57;4.82;;;;;;;;;;5050778;28;20404;-78
2022/04/28 08:29:09;;;;;;;7.78;4.07;;;;;;;;;;5050968;28;20080;-77
2022/04/28 08:31:44;;;;;;;7.38;4.13;;;;;;;;;;5051110;28;20462;-74
2022/04/28 08:34:11;;;;;;;8.18;4.47;;;;;;;;;;5051335;28;20056;-76
2022/04/28 08:36:38;;;;;;;8.70;4.55;;;;;;;;;;5051368;28;20083;-78
2022/04/28 08:39:04;;;;;;;6.93;3.65;;;;;;;;;;5051133;28;20091;-76
2022/04/28 08:41:34;;;;;;;9.48;4.72;;;;;;;;;;5051092;28;20092;-77
2022/04/28 08:44:02;;;;;;;7.05;3.85;;;;;;;;;;5051347;28;20110;-75
2022/04/28 08:49:14;;;;;;;5.75;3.72;;;;;;;;;;5050863;28;19920;-75
2022/04/28 08:51:44;;;;;;;6.90;4.18;;;;;;;;;;5050497;28;20047;-75
2022/04/28 08:54:11;;;;;;;7.40;3.80;;;;;;;;;;5050660;28;20087;-74
2022/04/28 08:56:39;;;;;;;4.80;3.80;;;;;;;;;;5050377;28;20088;-74
2022/04/28 08:59:06;;;;;;;8.75;4.40;;;;;;;;;;5034499;28;20045;-77
2022/04/28 09:01:32;;;;;;;9.10;3.65;;;;;;;;;;5036115;28;20072;-78
2022/04/28 09:04:00;;;;;;;6.75;3.70;;;;;;;;;;5049695;28;20053;-77
2022/04/28 09:06:42;;;;;;;6.50;3.97;;;;;;;;;;5033980;28;20478;-78
2022/04/28 09:09:10;;;;;;;6.88;3.88;;;;;;;;;;5034309;28;20121;-77
2022/04/28 09:11:39;;;;;;;7.47;3.90;;;;;;;;;;5047235;28;20048;-77
2022/04/28 09:14:10;;;;;;;6.55;4.40;;;;;;;;;;5054291;28;20492;-75
2022/04/28 09:16:42;;;;;;;4.68;3.80;;;;;;;;;;5053490;28;20099;-75
2022/04/28 09:19:19;;;;;;;7.53;3.80;;;;;;;;;;5054214;28;20523;-75
2022/04/28 09:21:46;;;;;;;8.18;3.75;;;;;;;;;;5054646;28;20084;-76
2022/04/28 09:24:14;;;;;;;6.83;4.17;;;;;;;;;;5054134;28;20094;-78
2022/04/28 09:26:41;;;;;;;5.95;3.58;;;;;;;;;;5054090;28;20785;-75
2022/04/28 09:29:12;;;;;;;5.28;3.53;;;;;;;;;;5054433;28;20498;-75
2022/04/28 09:31:39;;;;;;;8.15;4.13;;;;;;;;;;5054370;28;20080;-76
2022/04/28 09:34:27;;;;;;;8.32;4.43;;;;;;;;;;5053735;28;20053;-74
2022/04/28 09:36:54;;;;;;;6.32;4.18;;;;;;;;;;5054087;28;20160;-74
2022/04/28 09:42:29;;;;;;;9.02;4.22;;;;;;;;;;5053973;28;20539;-74
2022/04/28 09:44:57;;;;;;;7.10;4.90;;;;;;;;;;5054236;28;20041;-74
2022/04/28 09:47:24;;;;;;;10.70;4.40;;;;;;;;;;5054017;28;20048;-74
2022/04/28 09:49:55;;;;;;;6.78;3.95;;;;;;;;;;5052790;28;20098;-74
2022/04/28 09:52:32;;;;;;;8.00;4.95;;;;;;;;;;5053995;28;20049;-74
2022/04/28 09:55:00;;;;;;;6.47;4.70;;;;;;;;;;5052329;28;20087;-75
2022/04/28 09:57:27;;;;;;;7.65;4.85;;;;;;;;;;5053762;28;20095;-74
2022/04/28 09:59:54;;;;;;;8.70;4.43;;;;;;;;;;5053523;28;20098;-75
2022/04/28 10:02:22;;;;;;;6.45;4.50;;;;;;;;;;5053461;28;20083;-73
2022/04/28 10:04:49;;;;;;;7.65;4.88;;;;;;;;;;5053663;28;20055;-75
2022/04/28 10:07:16;;;;;;;7.15;3.85;;;;;;;;;;5045314;28;20048;-76
2022/04/28 10:09:48;;;;;;;5.88;4.35;;;;;;;;;;5048166;28;20096;-75
2022/04/28 10:12:17;;;;;;;5.63;4.53;;;;;;;;;;5043440;28;20087;-74
2022/04/28 10:14:44;;;;;;;5.95;4.53;;;;;;;;;;5053436;28;20072;-73
2022/04/28 10:17:12;;;;;;;5.28;4.05;;;;;;;;;;5053345;28;20076;-76
2022/04/28 10:19:41;;;;;;;8.43;4.75;;;;;;;;;;5054128;28;20087;-74
2022/04/28 10:22:10;;;;;;;7.68;4.53;;;;;;;;;;5053440;28;20068;-75
2022/04/28 10:33:11;;;;;;;7.05;4.00;;;;;;;;;;5043529;28;20053;-76
2022/04/28 10:35:40;;;;;;;5.22;3.70;;;;;;;;;;5052909;28;20111;-77
2022/04/28 10:38:24;;;;;;;6.07;3.50;;;;;;;;;;5051631;28;20441;-75
2022/04/28 10:40:55;;;;;;;6.22;4.43;;;;;;;;;;5052766;28;20080;-74
2022/04/28 10:43:25;;;;;;;7.00;3.88;;;;;;;;;;5052857;28;20110;-72
2022/04/28 10:45:53;;;;;;;7.10;4.10;;;;;;;;;;5052862;28;20107;-74
2022/04/28 10:48:43;;;;;;;6.40;4.15;;;;;;;;;;5051311;28;20493;-74
2022/04/28 10:51:17;;;;;;;9.25;4.63;;;;;;;;;;5052437;28;20126;-76
2022/04/28 10:54:05;;;;;;;7.25;4.50;;;;;;;;;;5049063;28;20123;-77
2022/04/28 10:56:44;;;;;;;6.22;4.18;;;;;;;;;;5050856;28;20485;-76
2022/04/28 10:59:32;;;;;;;10.23;4.97;;;;;;;;;;5051801;28;20099;-76
2022/04/28 11:02:11;;;;;;;8.13;5.22;;;;;;;;;;5052227;28;20044;-75
2022/04/28 11:04:41;;;;;;;8.20;5.00;;;;;;;;;;5049200;28;20048;-75
2022/04/28 11:07:09;;;;;;;9.15;6.00;;;;;;;;;;5051807;28;20049;-78
2022/04/28 11:09:38;;;;;;;9.98;5.10;;;;;;;;;;5051892;28;20562;-80
2022/04/28 11:12:10;;;;;;;7.85;4.53;;;;;;;;;;5052240;28;20079;-73
2022/04/28 11:14:43;;;;;;;8.02;4.50;;;;;;;;;;5051167;28;20111;-75
2022/04/28 11:17:14;;;;;;;6.75;4.63;;;;;;;;;;5052053;28;20140;-75
2022/04/28 11:19:41;;;;;;;7.05;4.82;;;;;;;;;;5052097;28;20057;-75
2022/04/28 11:22:07;;;;;;;9.32;4.63;;;;;;;;;;5052192;28;20107;-77
2022/04/28 11:24:39;;;;;;;7.07;4.72;;;;;;;;;;5050976;28;20151;-77
2022/04/28 11:27:05;;;;;;;9.98;5.10;;;;;;;;;;5052211;28;20076;-76
2022/04/28 11:29:32;;;;;;;7.13;5.20;;;;;;;;;;5052137;28;20087;-76
2022/04/28 11:31:59;;;;;;;5.55;4.57;;;;;;;;;;5052074;28;20053;-76
2022/04/28 11:34:28;;;;;;;10.60;5.03;;;;;;;;;;5050537;28;20095;-76
2022/04/28 11:36:54;;;;;;;7.82;4.70;;;;;;;;;;5052050;28;20118;-76
2022/04/28 11:39:22;;;;;;;7.55;4.40;;;;;;;;;;5050673;28;20127;-76
2022/04/28 11:41:52;;;;;;;5.13;4.00;;;;;;;;;;5051910;28;20091;-76
2022/04/28 11:44:19;;;;;;;9.93;4.93;;;;;;;;;;5051597;28;20053;-76
2022/04/28 11:46:49;;;;;;;7.88;4.45;;;;;;;;;;5051637;28;20041;-76
2022/04/28 11:49:16;;;;;;;9.23;4.65;;;;;;;;;;5050461;28;19995;-76
2022/04/28 11:51:42;;;;;;;8.30;4.50;;;;;;;;;;5051783;28;20076;-76
2022/04/28 11:54:20;;;;;;;7.10;4.72;;;;;;;;;;5051820;28;20056;-76
2022/04/28 11:56:47;;;;;;;5.80;4.28;;;;;;;;;;5051848;28;20076;-76
2022/04/28 11:59:14;;;;;;;9.13;4.88;;;;;;;;;;5050273;28;20497;-76
2022/04/28 12:01:42;;;;;;;7.20;4.40;;;;;;;;;;5051229;28;20051;-76
2022/04/28 12:04:10;;;;;;;8.68;4.68;;;;;;;;;;5051441;28;20467;-76
2022/04/28 12:06:37;;;;;;;8.68;5.07;;;;;;;;;;5051319;28;20080;-76
2022/04/28 12:14:35;;;;;;;8.13;4.55;;;;;;;;;;5051635;28;20080;-76
2022/04/28 12:20:10;;;;;;;6.75;5.00;;;;;;;;;;5048865;28;20084;-76
2022/04/28 12:22:37;;;;;;;5.20;4.38;;;;;;;;;;5043450;28;20049;-76
2022/04/28 12:25:04;;;;;;;;;;;;;;;;;;5051903;28;20091;-76
2022/04/28 12:27:37;;;;;;;5.45;4.05;;;;;;;;;;5050270;28;19978;-76
2022/04/28 12:30:07;;;;;;;6.07;4.50;;;;;;;;;;5051460;28;20084;-76
2022/04/28 12:32:40;;;;;;;8.32;4.65;;;;;;;;;;5054676;28;20080;-77
2022/04/28 12:35:07;;;;;;;8.05;4.53;;;;;;;;;;5054858;28;20131;-76
2022/04/28 12:37:36;;;;;;;7.03;4.17;;;;;;;;;;5055072;28;20049;-76
2022/04/28 12:40:03;;;;;;;6.85;3.97;;;;;;;;;;5052875;28;20091;-75
2022/04/28 12:42:43;;;;;;;5.13;4.22;;;;;;;;;;5048388;28;20052;-79
2022/04/28 12:45:13;;;;;;;10.02;4.53;;;;;;;;;;5054489;28;20470;-82
2022/04/28 12:47:41;;;;;;;7.78;4.90;;;;;;;;;;5054293;28;20080;-80
2022/04/28 12:50:18;;;;;;;6.95;5.03;;;;;;;;;;5054618;28;20045;-74
2022/04/28 12:52:45;;;;;;;;;;;;;;;;;;5054914;28;20090;-75
2022/04/28 12:55:11;;;;;;;7.03;4.93;;;;;;;;;;5054809;28;20371;-73
2022/04/28 12:57:37;;;;;;;6.03;4.53;;;;;;;;;;5055004;28;20095;-76
2022/04/28 13:00:09;;;;;;;6.70;4.43;;;;;;;;;;5054244;28;20076;-75
2022/04/28 13:02:36;;;;;;;6.43;4.43;;;;;;;;;;5054074;28;20048;-73
2022/04/28 13:05:07;;;;;;;8.38;4.65;;;;;;;;;;5054579;28;20064;-76
2022/04/28 13:07:53;;;;;;;6.80;4.72;;;;;;;;;;5054243;28;20051;-77
2022/04/28 13:10:21;;;;;;;7.07;5.10;;;;;;;;;;5051640;28;20157;-78
2022/04/28 13:12:48;;;;;;;5.45;4.13;;;;;;;;;;5054044;28;20432;-75
2022/04/28 13:15:18;;;;;;;5.63;4.32;;;;;;;;;;5054663;28;20127;-76
2022/04/28 13:17:45;;;;;;;6.85;4.93;;;;;;;;;;5054345;28;20090;-76
2022/04/28 13:20:11;;;;;;;8.23;4.63;;;;;;;;;;5054661;28;20076;-76
2022/04/28 13:22:38;;;;;;;8.97;4.67;;;;;;;;;;5054350;28;20114;-76
2022/04/28 13:25:04;;;;;;;6.40;4.40;;;;;;;;;;5069112;28;20087;-75
2022/04/28 13:27:31;;;;;;;6.80;4.95;;;;;;;;;;5054399;28;20088;-76
2022/04/28 13:29:57;;;;;;;5.10;4.60;;;;;;;;;;5053188;28;20068;-76
2022/04/28 13:32:24;;;;;;;6.22;4.50;;;;;;;;;;5054142;28;20081;-75
2022/04/28 13:34:50;;;;;;;6.27;4.87;;;;;;;;;;5054020;28;20056;-75
2022/04/28 13:37:17;;;;;;;5.93;4.57;;;;;;;;;;5053781;28;20175;-75
2022/04/28 13:39:44;;;;;;;5.78;5.18;;;;;;;;;;5053851;28;20084;-75
2022/04/28 13:42:11;;;;;;;6.72;4.68;;;;;;;;;;5068393;28;20049;-75
2022/04/28 13:44:37;;;;;;;9.80;5.40;;;;;;;;;;5052560;28;20147;-75
2022/04/28 13:47:04;;;;;;;7.68;5.10;;;;;;;;;;5054165;28;20048;-75
2022/04/28 13:49:31;;;;;;;6.28;5.28;;;;;;;;;;5053685;28;20060;-75
2022/04/28 13:51:57;;;;;;;6.57;5.22;;;;;;;;;;5053644;28;20493;-76
2022/04/28 13:54:24;;;;;;;6.78;4.82;;;;;;;;;;5053854;28;20049;-75
2022/04/28 13:56:50;;;;;;;7.43;5.28;;;;;;;;;;5068924;28;20067;-75
2022/04/28 13:59:17;;;;;;;5.68;4.90;;;;;;;;;;5053897;28;20052;-75
2022/04/28 14:01:43;;;;;;;8.48;5.20;;;;;;;;;;5053423;28;20048;-75
2022/04/28 14:04:10;;;;;;;9.83;5.10;;;;;;;;;;5052306;28;20052;-76
2022/04/28 14:06:37;;;;;;;6.63;5.17;;;;;;;;;;5053667;28;20306;-76
2022/04/28 14:09:03;;;;;;;6.55;5.00;;;;;;;;;;5053368;28;20076;-75
2022/04/28 14:11:29;;;;;;;6.55;5.03;;;;;;;;;;5052240;28;20110;-75
2022/04/28 14:13:56;;;;;;;5.32;4.60;;;;;;;;;;5053360;28;20083;-75
2022/04/28 14:16:22;;;;;;;5.72;4.72;;;;;;;;;;5053280;28;20077;-76
2022/04/28 14:18:49;;;;;;;6.05;4.47;;;;;;;;;;5053139;28;20118;-75
2022/04/28 14:21:16;;;;;;;6.65;5.22;;;;;;;;;;5053400;28;20463;-75
2022/04/28 14:23:42;;;;;;;6.90;5.07;;;;;;;;;;5053472;28;20084;-73
2022/04/28 14:26:10;;;;;;;7.82;4.43;;;;;;;;;;5053324;28;20099;-74
2022/04/28 14:28:37;;;;;;;6.60;5.07;;;;;;;;;;5052902;28;20071;-75
2022/04/28 14:31:03;;;;;;;10.88;5.07;;;;;;;;;;5053067;28;20045;-76
2022/04/28 14:33:50;;;;;;;7.68;4.82;;;;;;;;;;5051596;28;20056;-78
2022/04/28 14:36:16;;;;;;;7.85;4.63;;;;;;;;;;5068492;28;20091;-76
2022/04/28 14:38:43;;;;;;;6.32;4.60;;;;;;;;;;5067840;28;20040;-76
2022/04/28 14:41:10;;;;;;;7.60;4.47;;;;;;;;;;5070004;28;20488;-75
2022/04/28 14:43:37;;;;;;;5.20;4.45;;;;;;;;;;5070739;28;20052;-76
2022/04/28 14:46:03;;;;;;;5.18;4.68;;;;;;;;;;5070827;28;20562;-76
2022/04/28 14:52:19;;;;;;;5.50;4.10;;;;;;;;;;5070532;28;20107;-76
2022/04/28 14:54:02;;;;;;;5.30;4.63;;;;;;;;;;5069212;28;20114;-75
2022/04/28 14:56:28;;;;;;;6.10;4.95;;;;;;;;;;5067219;28;20454;-75
2022/04/28 14:58:55;;;;;;;7.30;5.53;;;;;;;;;;5084854;28;20091;-76
2022/04/28 15:01:21;;;;;;;7.17;5.30;;;;;;;;;;5070531;28;20106;-75
2022/04/28 15:03:48;;;;;;;7.22;5.57;;;;;;;;;;5071190;28;20285;-76
2022/04/28 15:06:15;;;;;;;5.55;4.95;;;;;;;;;;5067587;28;20455;-76
2022/04/28 15:08:41;;;;;;;6.00;4.32;;;;;;;;;;5069443;28;20086;-76
2022/04/28 15:11:08;;;;;;;6.30;5.40;;;;;;;;;;5070085;28;20091;-75
2022/04/28 15:13:35;;;;;;;8.82;5.05;;;;;;;;;;5069402;28;20080;-75
2022/04/28 15:16:01;;;;;;;7.82;6.15;;;;;;;;;;5071166;28;20102;-75
2022/04/28 15:18:28;;;;;;;6.35;5.57;;;;;;;;;;5085463;28;20463;-75
2022/04/28 15:20:54;;;;;;;7.95;5.35;;;;;;;;;;5069448;28;20056;-75
2022/04/28 15:23:21;;;;;;;6.13;4.87;;;;;;;;;;5070384;28;20522;-75
2022/04/28 15:25:47;;;;;;;5.97;5.43;;;;;;;;;;5070208;28;20321;-75
2022/04/28 15:28:14;;;;;;;7.53;5.30;;;;;;;;;;5086282;28;20139;-78